Terminal Aerodrome Forecast
Issued by NWS Detroit/Pontiac, MI

Home | Current Version | Previous Version | Text Only | Print | Product List | Glossary On
Versions: 1 2 3 4 5 6 7 8 9 10 11 12 13 14 15 16 17 18 19 20 21
000
FTUS43 KDTX 041723
TAFFNT
TAF
KFNT 041723Z 0418/0518 28013G21KT P6SM SCT040 BKN060
      TEMPO 0419/0421 4SM -SHRA BKN040
     FM042300 30009KT P6SM SCT060
     FM050200 31004KT P6SM FEW060=

USA.gov is the U.S. government's official web portal to all federal, state and local government web resources and services.